• Join FlightAware (Why Join?)
  • Login
  • US Flag 
11:34AM EST


 

Airport Tracker/Info


-or-


 

Live Flight TrackerFlight Track Log ✈ EGF4603 ✈ 19-Apr-2013 ✈ KCLT - KLGA

Flight Track Log - Related Links

Times and Time Zones

All times are in EDT time to prevent confusion due to time zone crossing. See the EGF4603 flight status page for this flight to view local times or setup timezone preferences in your user account.

Time Position Orientation Groundspeed Altitude Reporting Facility
EDT Latitude Longitude Course Direction KTS MPH feet Rate Location/Type
08:15PM 35.1992 -80.9353 13° North 156 180 1,400  Level Atlanta Center
08:16PM 35.1369 -80.9453 187° South 192 221 4,900 2,460 Climbing Atlanta Center
08:17PM 35.1819 -81.2167 North  Level FlightAware Approximate
08:17PM 35.0942 -80.9875 219° Southwest 231 266 6,900  Level Atlanta Center
08:17PM 35.0906 -81.0131 260° West 237 273 7,600 1,080 Climbing Atlanta Center
08:18PM 35.2882 -81.1591 52° Northeast  Level FlightAware Approximate
08:18PM 35.0919 -81.0664 272° West 240 276 8,000  Level Atlanta Center
08:18PM 35.0925 -81.0892 272° West 251 289 8,000 120 Level Atlanta Center
08:19PM 35.3723 -81.0270 52° Northeast  Level FlightAware Approximate
08:19PM 35.1108 -81.1672 286° West 251 289 8,200  Level Atlanta Center
08:20PM 35.4849 -80.9466 13° North  Level FlightAware Approximate
08:20PM 35.1539 -81.2242 313° West 246 283 10,400  Level Atlanta Center
08:21PM 35.2433 -81.2133 North 306 352 12,200 1,380 Climbing Atlanta Center
08:22PM 35.3419 -81.1414 31° Northeast 360 414 13,200 1,080 Climbing Atlanta Center
08:23PM 35.4508 -81.0686 29° Northeast 408 470 14,400 1,200 Climbing Atlanta Center
08:24PM 35.5636 -80.9906 29° Northeast 450 518 15,600 1,200 Climbing Atlanta Center
08:25PM 35.6847 -80.9169 26° Northeast 477 549 16,900 1,200 Climbing Atlanta Center
08:26PM 35.8119 -80.9122 North 453 521 18,100 1,080 Climbing Atlanta Center
08:27PM 35.9411 -80.9097 North 453 521 19,100 900 Climbing Atlanta Center
08:28PM 36.0747 -80.9072 North 467 537 20,000 960 Climbing Atlanta Center
08:29PM 36.2103 -80.9044 North 480 552 21,100 1,200 Climbing Atlanta Center
08:30PM 36.3478 -80.8992 North 480 552 22,400 1,320 Climbing Atlanta Center
08:31PM 36.4872 -80.8961 North 486 559 23,800 1,200 Climbing Atlanta Center
08:32PM 36.6269 -80.8908 North 492 566 24,800 840 Climbing Atlanta Center
08:33PM 36.7542 -80.8908 360° North 498 573 25,500 900 Climbing Atlanta Center
08:34PM 36.9269 -80.8892 360° North 508 585 26,700 960 Climbing Atlanta Center
08:36PM 37.1656 -80.8833 North 532 612 28,100 840 Climbing Indianapolis Center
08:37PM 37.3111 -80.8800 North 534 615 29,000 780 Climbing Indianapolis Center
08:38PM 37.4558 -80.8889 357° North 532 612 29,800 780 Climbing Indianapolis Center
08:39PM 37.5994 -80.8978 357° North 528 608 30,700 960 Climbing Indianapolis Center
08:40PM 37.7764 -80.9097 357° North 537 618 31,800 900 Climbing Indianapolis Center
08:41PM 37.9031 -80.9181 357° North 539 620 32,600 540 Climbing Indianapolis Center
08:42PM 38.0839 -80.9292 357° North 542 624 33,000 180 Climbing Indianapolis Center
08:43PM 38.2414 -80.9394 357° North 566 651 33,000  Level Indianapolis Center
08:44PM 38.4014 -80.9494 357° North 579 666 33,000  Level Indianapolis Center
08:45PM 38.5628 -80.9589 357° North 585 673 33,000  Level Indianapolis Center
08:46PM 38.7186 -80.9692 357° North 569 655 33,000  Level Indianapolis Center
08:47PM 38.8692 -80.9789 357° North 552 635 33,000  Level Indianapolis Center
08:48PM 39.0200 -80.9892 357° North 549 632 33,000  Level Indianapolis Center
08:49PM 39.2008 -81.0011 357° North 542 624 33,000  Level Indianapolis Center
08:50PM 39.3558 -81.0111 357° North 555 639 33,000  Level Indianapolis Center
08:51PM 39.5144 -81.0222 357° North 570 656 33,000  Level Indianapolis Center
08:52PM 39.6742 -81.0342 357° North 575 662 33,000  Level Indianapolis Center
08:53PM 39.7161 -81.0336 North 565 650 33,000  Level Cleveland Center
08:54PM 39.8806 -81.0456 357° North 572 658 33,000  Level Cleveland Center
08:55PM 40.0600 -81.0578 357° North 578 665 33,000  Level Cleveland Center
08:56PM 40.2225 -81.0697 357° North 578 665 33,000  Level Cleveland Center
08:57PM 40.3808 -81.0792 357° North 578 665 33,000  Level Cleveland Center
08:58PM 40.5433 -81.0914 357° North 573 659 33,000  Level Cleveland Center
08:59PM 40.7017 -81.1033 357° North 573 659 33,000  Level Cleveland Center
09:00PM 40.8622 -81.1158 357° North 573 659 33,000  Level Cleveland Center
09:01PM 41.0039 -81.1278 356° North 573 659 33,000  Level Cleveland Center
09:02PM 41.1644 -81.1347 358° North 573 659 33,000  Level Cleveland Center
09:03PM 41.3211 -81.0864 13° North 573 659 33,000  Level Cleveland Center
09:04PM 41.4486 -80.9572 37° Northeast 561 646 33,000  Level Cleveland Center
09:05PM 41.5200 -80.7911 60° Northeast 518 596 33,000  Level Cleveland Center
09:06PM 41.5347 -80.6275 83° East 479 551 33,000  Level Cleveland Center
09:07PM 41.5181 -80.4750 98° East 416 479 33,000  Level Cleveland Center
09:08PM 41.4969 -80.3142 100° East 411 473 33,000  Level Cleveland Center
09:09PM 41.4797 -80.1675 99° East 406 467 33,000  Level Cleveland Center
09:10PM 41.4583 -80.0208 101° East 406 467 33,000  Level Cleveland Center
09:11PM 41.4367 -79.8742 101° East 406 467 33,000  Level Cleveland Center
09:12PM 41.4169 -79.7275 100° East 406 467 33,000  Level Cleveland Center
09:13PM 41.3992 -79.5811 99° East 406 467 33,000  Level Cleveland Center
09:14PM 41.3767 -79.4319 101° East 406 467 33,000  Level Cleveland Center
09:15PM 41.3564 -79.2886 101° East 406 467 33,000  Level Cleveland Center
09:16PM 41.3339 -79.1453 102° East 406 467 33,000  Level Cleveland Center
09:17PM 41.3133 -79.0019 101° East 401 461 33,000  Level Cleveland Center
09:18PM 41.2944 -78.8531 100° East 401 461 33,000  Level Cleveland Center
09:19PM 41.2467 -78.7356 118° Southeast 364 419 33,000  Level Cleveland Center
09:20PM 41.1731 -78.6908 155° Southeast 307 353 33,000  Level Cleveland Center
09:21PM 41.0983 -78.7094 191° South 251 289 33,000  Level Cleveland Center
09:22PM 41.0450 -78.7633 217° Southwest 246 283 33,000  Level Cleveland Center
09:23PM 41.0389 -78.9067 267° West 292 336 33,000  Level Cleveland Center
09:24PM 41.0594 -79.0411 282° West 346 398 33,000  Level Cleveland Center
09:25PM 41.0778 -79.1756 280° West 356 410 33,000  Level Cleveland Center
09:26PM 41.1025 -79.3156 283° West 375 432 33,000  Level Cleveland Center
09:27PM 41.2200 -79.3906 334° Northwest 391 450 33,000  Level Cleveland Center
09:28PM 41.3378 -79.2861 34° Northeast 363 418 33,000  Level Cleveland Center
09:29PM 41.3383 -79.1617 90° East 280 322 33,000  Level Cleveland Center
09:30PM 41.3178 -79.0322 102° East 282 325 33,000  Level Cleveland Center
09:31PM 41.2969 -78.8833 101° East 329 379 33,000  Level Cleveland Center
09:32PM 41.2619 -78.7656 112° Southeast 347 399 33,000  Level Cleveland Center
09:33PM 41.1942 -78.7122 149° Southeast 280 322 33,000  Level Cleveland Center
09:34PM 41.1239 -78.7389 196° South 236 272 33,000  Level Cleveland Center
09:35PM 41.0658 -78.7656 199° South 236 272 33,000  Level Cleveland Center
09:36PM 41.0361 -78.8708 250° West 244 281 33,000  Level Cleveland Center
09:37PM 41.0506 -79.0000 278° West 288 331 33,000  Level Cleveland Center
09:38PM 41.0711 -79.1261 282° West 324 373 33,000  Level Cleveland Center
09:39PM 41.0892 -79.2525 281° West 343 395 33,000  Level Cleveland Center
09:40PM 41.1508 -79.3642 306° West 360 414 33,000  Level Cleveland Center
09:41PM 41.2883 -79.3425 North 369 425 33,000  Level Cleveland Center
09:42PM 41.3472 -79.2167 58° Northeast 333 383 33,000  Level Cleveland Center
09:43PM 41.3289 -79.0706 99° East 289 333 33,000  Level Cleveland Center
09:44PM 41.3039 -78.9192 102° East 349 402 33,000  Level Cleveland Center
09:45PM 41.2789 -78.7928 105° East 349 402 33,000  Level Cleveland Center
09:46PM 41.2194 -78.7169 136° Southeast 301 346 33,000  Level Cleveland Center
09:47PM 41.1419 -78.7083 175° South 261 300 33,000 -300 Level Cleveland Center
09:48PM 41.0775 -78.7156 185° South 260 299 32,500 -780 Descending Cleveland Center
09:49PM 40.9861 -78.7236 184° South 284 327 31,500 -1,020 Descending Cleveland Center
09:50PM 40.9244 -78.7886 219° Southwest 289 333 30,500 -1,440 Descending Cleveland Center
09:51PM 40.9578 -78.9225 288° West 264 304 28,700 -2,220 Descending Cleveland Center
09:52PM 41.0222 -79.0667 301° West 322 371 26,100 -2,400 Descending Cleveland Center
09:53PM 41.0633 -79.1814 295° West 340 391 24,000 -2,160 Descending Cleveland Center
09:54PM 41.0792 -79.2886 281° West 322 371 21,800 -2,280 Descending Cleveland Center
09:55PM 41.0614 -79.3797 256° West 280 322 19,500 -2,520 Descending Cleveland Center
09:56PM 41.0436 -79.4653 255° West 262 302 16,800 -2,760 Descending Cleveland Center
09:57PM 40.9942 -79.6008 244° Southwest 245 282 12,100 -2,700 Descending FAA TRACON SMA TRACON (SMA)
09:58PM 40.9844 -79.6206 237° Southwest 244 281 11,500 -1,260 Descending Cleveland Center
09:59PM 40.9392 -79.6761 223° Southwest 234 269 10,500 -780 Descending Cleveland Center
10:00PM 40.8853 -79.7181 210° Southwest 228 262 10,000 -300 Descending Cleveland Center
10:01PM 40.8250 -79.7628 209° Southwest 240 276 10,000 -780 Level Cleveland Center
10:02PM 40.7669 -79.8072 210° Southwest 245 282 8,500 -1,500 Descending Cleveland Center
10:03PM 40.7069 -79.8517 209° Southwest 245 282 7,000 -1,500 Descending Cleveland Center
10:04PM 40.6489 -79.8961 210° Southwest 245 282 5,500 -1,500 Descending Cleveland Center
10:04PM 40.6075 -79.9228 206° Southwest 218 251 4,500 -1,320 Descending FAA TRACON SMA TRACON (SMA)
10:05PM 40.5917 -79.9350 210° Southwest 216 249 4,100 -780 Descending FAA TRACON SMA TRACON (SMA)
10:05PM 40.5761 -79.9467 210° Southwest 211 243 4,000 -180 Descending FAA TRACON SMA TRACON (SMA)
10:05PM 40.5581 -79.9603 210° Southwest 199 229 4,000  Level FAA TRACON SMA TRACON (SMA)
10:06PM 40.5444 -79.9706 210° Southwest 188 216 4,000  Level FAA TRACON SMA TRACON (SMA)
10:06PM 40.5308 -79.9806 209° Southwest 188 216 4,000 -300 Level FAA TRACON SMA TRACON (SMA)
10:06PM 40.5125 -79.9944 210° Southwest 199 229 3,800 -900 Descending FAA TRACON SMA TRACON (SMA)
10:07PM 40.4978 -80.0056 210° Southwest 199 229 3,400 -1,080 Descending FAA TRACON SMA TRACON (SMA)
10:07PM 40.4819 -80.0167 208° Southwest 207 238 3,100 -600 Descending FAA TRACON SMA TRACON (SMA)
10:07PM 40.4744 -80.0411 248° West 189 217 3,000 -180 Descending FAA TRACON SMA TRACON (SMA)
10:08PM 40.4786 -80.0617 285° West 187 215 3,000  Level FAA TRACON SMA TRACON (SMA)
10:08PM 40.4808 -80.0806 279° West 168 193 3,000 -300 Level FAA TRACON SMA TRACON (SMA)
10:08PM 40.4822 -80.1014 275° West 141 162 2,800 -600 Descending FAA TRACON SMA TRACON (SMA)
10:09PM 40.4825 -80.1161 271° West 130 150 2,600 -600 Descending FAA TRACON SMA TRACON (SMA)
10:09PM 40.4828 -80.1303 271° West 129 148 2,400 -780 Descending FAA TRACON SMA TRACON (SMA)
10:09PM 40.4833 -80.1478 272° West 129 148 2,100 -780 Descending FAA TRACON SMA TRACON (SMA)
10:10PM 40.4839 -80.1622 273° West 126 145 1,900 -600 Descending FAA TRACON SMA TRACON (SMA)
10:10PM 40.4842 -80.1756 272° West 123 142 1,700 -780 Descending FAA TRACON SMA TRACON (SMA)
10:10PM 40.4847 -80.1931 272° West 124 143 1,400 -600 Descending FAA TRACON SMA TRACON (SMA)
10:11PM 40.4853 -80.2036 274° West 125 144 1,300 -180 Descending FAA TRACON SMA TRACON (SMA)
10:11PM 40.4853 -80.2036 201° Southwest 125 144 1,300  Level FAA TRACON SMA TRACON (SMA)